Time;durP1;ratioP1;P1;durP2;ratioP2;P2;SDS_P1;SDS_P2;PMS_P1;PMS_P2;Temp;Humidity;BMP_temperature;BMP_pressure;BME280_temperature;BME280_humidity;BME280_pressure;Samples;Min_cycle;Max_cycle;Signal;HPM_P1;HPM_P2
2022/04/18 00:00:17;;;;;;;;;;;;;;;3.96;66.44;98589.45;1774383;80;20435;-83
2022/04/18 00:02:45;;;;;;;;;;;;;;;3.93;66.69;98583.09;1778191;80;20200;-84
2022/04/18 00:05:11;;;;;;;;;;;;;;;3.74;66.72;98586.89;1774780;80;20314;-84
2022/04/18 00:07:37;;;;;;;;;;;;;;;3.59;66.76;98587.51;1775457;80;25941;-83
2022/04/18 00:10:03;;;;;;;;;;;;;;;3.63;67.04;98583.89;1779215;80;24383;-83
2022/04/18 00:12:32;;;;;;;;;;;;;;;3.67;67.38;98588.03;1775291;80;20268;-83
2022/04/18 00:14:58;;;;;;;;;;;;;;;3.70;67.65;98580.61;1769813;80;24756;-83
2022/04/18 00:17:24;;;;;;;;;;;;;;;3.73;67.97;98576.59;1778034;80;20834;-83
2022/04/18 00:19:50;;;;;;;;;;;;;;;3.71;68.18;98574.06;1779361;80;26183;-83
2022/04/18 00:22:16;;;;;;;;;;;;;;;3.75;68.46;98572.20;1778480;80;20283;-83
2022/04/18 00:24:42;;;;;;;;;;;;;;;3.73;68.67;98565.79;1773320;80;20230;-82
2022/04/18 00:27:08;;;;;;;;;;;;;;;3.76;68.86;98557.89;1778006;80;20295;-83
2022/04/18 00:29:34;;;;;;;;;;;;;;;3.71;68.90;98556.39;1777887;80;21928;-83
2022/04/18 00:32:00;;;;;;;;;;;;;;;3.62;68.92;98547.71;1772205;80;26093;-83
2022/04/18 00:34:26;;;;;;;;;;;;;;;3.61;69.04;98549.45;1770497;80;20240;-83
2022/04/18 00:36:52;;;;;;;;;;;;;;;3.59;69.14;98548.70;1778513;80;20818;-83
2022/04/18 00:39:20;;;;;;;;;;;;;;;3.55;69.22;98547.11;1774078;80;24875;-82
2022/04/18 00:41:46;;;;;;;;;;;;;;;3.54;69.37;98542.86;1775212;80;22211;-82
2022/04/18 00:44:12;;;;;;;;;;;;;;;3.52;69.51;98535.60;1776434;80;20995;-82
2022/04/18 00:46:38;;;;;;;;;;;;;;;3.48;69.59;98535.34;1777033;80;20236;-83
2022/04/18 00:49:04;;;;;;;;;;;;;;;3.47;69.73;98537.53;1779368;80;20471;-83
2022/04/18 00:51:30;;;;;;;;;;;;;;;3.40;69.78;98539.96;1775315;80;20526;-83
2022/04/18 00:53:57;;;;;;;;;;;;;;;3.34;69.83;98533.73;1777496;80;22022;-82
2022/04/18 00:56:24;;;;;;;;;;;;;;;3.25;69.84;98531.52;1776807;80;26109;-83
2022/04/18 00:58:50;;;;;;;;;;;;;;;3.16;69.87;98526.71;1772125;80;24525;-83
2022/04/18 01:01:17;;;;;;;;;;;;;;;3.11;69.97;98528.63;1777032;80;20236;-83
2022/04/18 01:03:43;;;;;;;;;;;;;;;3.04;70.07;98524.59;1772580;80;24799;-82
2022/04/18 01:06:10;;;;;;;;;;;;;;;2.97;70.17;98519.25;1777574;80;22047;-83
2022/04/18 01:08:36;;;;;;;;;;;;;;;2.98;70.40;98509.31;1777483;80;26121;-83
2022/04/18 01:11:05;;;;;;;;;;;;;;;3.03;70.68;98516.44;1777586;80;24385;-83
2022/04/18 01:13:32;;;;;;;;;;;;;;;3.07;70.96;98515.41;1774691;80;20213;-83
2022/04/18 01:15:59;;;;;;;;;;;;;;;3.11;71.26;98515.70;1774511;80;24816;-83
2022/04/18 01:18:24;;;;;;;;;;;;;;;3.16;71.58;98512.48;1777837;80;20219;-83
2022/04/18 01:20:50;;;;;;;;;;;;;;;3.13;71.79;98511.30;1779623;80;21094;-83
2022/04/18 01:23:17;;;;;;;;;;;;;;;3.09;71.98;98514.91;1774631;80;20258;-83
2022/04/18 01:31:15;;;;;;;;;;;;;;;3.08;72.70;98508.89;1779808;80;22125;-83
2022/04/18 01:33:41;;;;;;;;;;;;;;;3.16;73.03;98509.91;1776771;80;26019;-82
2022/04/18 01:36:09;;;;;;;;;;;;;;;3.13;73.24;98504.39;1775764;80;20271;-82
2022/04/18 01:38:35;;;;;;;;;;;;;;;3.16;73.48;98506.87;1778188;80;20311;-82
2022/04/18 01:41:01;;;;;;;;;;;;;;;3.16;73.70;98508.16;1772928;80;20259;-82
2022/04/18 01:43:27;;;;;;;;;;;;;;;3.06;73.74;98502.93;1775853;80;21963;-82
2022/04/18 01:45:53;;;;;;;;;;;;;;;3.01;73.84;98495.80;1774926;80;26088;-82
2022/04/18 01:48:19;;;;;;;;;;;;;;;2.90;73.90;98487.17;1777554;80;20228;-82
2022/04/18 01:50:47;;;;;;;;;;;;;;;2.81;73.92;98493.99;1745935;80;20240;-82
2022/04/18 01:53:13;;;;;;;;;;;;;;;2.67;73.95;98483.34;1776304;80;20244;-82
2022/04/18 01:55:39;;;;;;;;;;;;;;;2.52;73.97;98483.44;1776815;80;22049;-82
2022/04/18 01:58:05;;;;;;;;;;;;;;;2.40;74.06;98481.30;1779242;80;25945;-82
2022/04/18 02:00:32;;;;;;;;;;;;;;;2.30;74.17;98478.66;1778775;80;20976;-82
2022/04/18 02:02:59;;;;;;;;;;;;;;;2.25;74.37;98472.82;1772028;80;20241;-82
2022/04/18 02:05:25;;;;;;;;;;;;;;;2.22;74.57;98470.81;1777983;80;24935;-82
2022/04/18 02:07:51;;;;;;;;;;;;;;;2.20;74.84;98471.30;1775586;80;21928;-81
2022/04/18 02:10:17;;;;;;;;;;;;;;;2.13;75.09;98468.09;1777479;80;21217;-81
2022/04/18 02:12:43;;;;;;;;;;;;;;;2.09;75.35;98467.81;1774179;80;20380;-81
2022/04/18 02:15:09;;;;;;;;;;;;;;;2.09;75.64;98471.23;1775920;80;20814;-82
2022/04/18 02:17:35;;;;;;;;;;;;;;;2.10;75.97;98463.89;1777736;80;24800;-82
2022/04/18 02:20:01;;;;;;;;;;;;;;;2.14;76.35;98462.48;1775819;80;21931;-82
2022/04/18 02:22:27;;;;;;;;;;;;;;;2.20;76.73;98468.72;1773697;80;21029;-82
2022/04/18 02:24:55;;;;;;;;;;;;;;;2.22;77.06;98464.36;1778291;80;24390;-82
2022/04/18 02:27:21;;;;;;;;;;;;;;;2.26;77.38;98459.02;1777962;80;20292;-83
2022/04/18 02:29:47;;;;;;;;;;;;;;;2.27;77.66;98458.12;1778122;80;20805;-82
2022/04/18 02:34:57;;;;;;;;;;;;;;;2.23;78.10;98450.55;1779359;80;26036;-85
2022/04/18 02:37:24;;;;;;;;;;;;;;;2.30;78.40;98453.28;1779072;80;20239;-86
2022/04/18 02:39:50;;;;;;;;;;;;;;;2.34;78.67;98449.72;1776256;80;20325;-85
2022/04/18 02:42:17;;;;;;;;;;;;;;;2.37;78.92;98447.02;1777600;80;24807;-85
2022/04/18 02:44:45;;;;;;;;;;;;;;;2.39;79.17;98443.48;1777876;80;22029;-82
2022/04/18 02:47:11;;;;;;;;;;;;;;;2.40;79.38;98442.56;1777181;80;26600;-82
2022/04/18 02:49:37;;;;;;;;;;;;;;;2.41;79.60;98442.96;1775644;80;24460;-83
2022/04/18 02:52:04;;;;;;;;;;;;;;;2.45;79.82;98441.97;1733191;80;20381;-82
2022/04/18 02:54:30;;;;;;;;;;;;;;;2.49;80.06;98437.52;1713487;81;24914;-82
2022/04/18 02:56:56;;;;;;;;;;;;;;;2.51;80.27;98433.97;1762187;80;20288;-83
2022/04/18 02:59:22;;;;;;;;;;;;;;;2.51;80.42;98437.84;1730466;81;21067;-82
2022/04/18 03:01:48;;;;;;;;;;;;;;;2.50;80.53;98434.05;1777057;80;20978;-82
2022/04/18 03:04:14;;;;;;;;;;;;;;;2.52;80.71;98434.36;1776154;80;20243;-83
2022/04/18 03:06:40;;;;;;;;;;;;;;;2.47;80.77;98431.56;1779107;80;24716;-83
2022/04/18 03:09:06;;;;;;;;;;;;;;;2.36;80.74;98431.96;1777599;80;20803;-83
2022/04/18 03:11:32;;;;;;;;;;;;;;;2.29;80.74;98427.09;1778876;80;25981;-83
2022/04/18 03:13:58;;;;;;;;;;;;;;;2.24;80.84;98423.81;1777573;80;20330;-84
2022/04/18 03:16:24;;;;;;;;;;;;;;;2.22;80.93;98432.93;1779677;80;20346;-84
2022/04/18 03:18:50;;;;;;;;;;;;;;;2.15;80.96;98421.13;1777076;80;24803;-83
2022/04/18 03:21:16;;;;;;;;;;;;;;;2.19;81.12;98425.28;1779714;80;22571;-84
2022/04/18 03:23:46;;;;;;;;;;;;;;;2.26;81.39;98415.13;1778498;80;26111;-83
2022/04/18 03:26:13;;;;;;;;;;;;;;;2.38;81.71;98411.25;1776372;80;24592;-84
2022/04/18 03:28:40;;;;;;;;;;;;;;;2.43;81.95;98409.34;1747652;80;20145;-85
2022/04/18 03:31:06;;;;;;;;;;;;;;;2.43;82.07;98401.59;1731638;81;20268;-82
2022/04/18 03:33:33;;;;;;;;;;;;;;;2.41;82.14;98403.38;1755952;80;20705;-82
2022/04/18 03:41:31;;;;;;;;;;;;;;;2.37;82.35;98397.95;1736412;80;20270;-83
2022/04/18 03:43:57;;;;;;;;;;;;;;;2.26;82.33;98397.50;1735216;80;20259;-83
2022/04/18 03:46:23;;;;;;;;;;;;;;;2.12;82.23;98399.31;1729545;80;20240;-83
2022/04/18 03:48:50;;;;;;;;;;;;;;;1.94;82.09;98400.81;1740325;80;25938;-83
2022/04/18 03:51:15;;;;;;;;;;;;;;;1.79;81.97;98403.10;1730405;80;24722;-83
2022/04/18 03:53:41;;;;;;;;;;;;;;;1.65;81.94;98403.13;1739022;80;20790;-83
2022/04/18 03:56:07;;;;;;;;;;;;;;;1.56;81.94;98402.16;1737744;80;20234;-83
2022/04/18 03:58:33;;;;;;;;;;;;;;;1.47;81.99;98401.20;1734133;80;20771;-83
2022/04/18 04:00:59;;;;;;;;;;;;;;;1.39;82.08;98399.75;1730610;80;21016;-83
2022/04/18 04:03:26;;;;;;;;;;;;;;;1.38;82.25;98404.06;1735236;80;24534;-83
2022/04/18 04:05:56;;;;;;;;;;;;;;;1.57;82.71;98401.72;1736829;80;20213;-83
2022/04/18 04:08:24;;;;;;;;;;;;;;;1.73;83.18;98404.16;1726566;80;24792;-83
2022/04/18 04:10:50;;;;;;;;;;;;;;;1.79;83.49;98403.95;1732173;80;22107;-83
2022/04/18 04:13:16;;;;;;;;;;;;;;;1.85;83.77;98403.73;1728046;80;26043;-82
2022/04/18 04:15:48;;;;;;;;;;;;;;;1.90;84.03;98397.96;1729105;80;24645;-82
2022/04/18 04:18:14;;;;;;;;;;;;;;;2.03;84.36;98399.63;1744887;80;20429;-83
2022/04/18 04:20:40;;;;;;;;;;;;;;;2.16;84.66;98402.62;1750506;80;24885;-83
2022/04/18 04:23:06;;;;;;;;;;;;;;;2.20;84.85;98395.99;1734373;81;22147;-82
2022/04/18 04:25:32;;;;;;;;;;;;;;;2.24;85.03;98396.70;1727590;81;25941;-85
2022/04/18 04:27:58;;;;;;;;;;;;;;;2.18;85.01;98393.09;1745150;80;24576;-85
2022/04/18 04:30:24;;;;;;;;;;;;;;;2.11;84.96;98391.17;1746603;80;20487;-83
2022/04/18 04:32:54;;;;;;;;;;;;;;;2.08;84.96;98395.98;1730823;80;24713;-83
2022/04/18 04:35:20;;;;;;;;;;;;;;;2.05;84.98;98388.37;1741297;81;22139;-83
2022/04/18 04:37:46;;;;;;;;;;;;;;;2.05;85.06;98384.50;1736548;80;21018;-83
2022/04/18 04:40:12;;;;;;;;;;;;;;;2.05;85.11;98385.79;1736577;80;20326;-83
2022/04/18 04:42:38;;;;;;;;;;;;;;;2.05;85.20;98378.48;1753849;80;20806;-83
2022/04/18 04:45:09;;;;;;;;;;;;;;;2.12;85.39;98386.86;1741432;80;25449;-83
2022/04/18 04:47:35;;;;;;;;;;;;;;;1.96;85.33;98387.42;1731027;80;22055;-83
2022/04/18 04:50:01;;;;;;;;;;;;;;;1.88;85.30;98391.16;1731132;80;20998;-83
2022/04/18 04:52:27;;;;;;;;;;;;;;;1.75;85.24;98384.30;1735680;81;24578;-84
2022/04/18 04:54:53;;;;;;;;;;;;;;;1.64;85.20;98387.69;1717078;81;20843;-84
2022/04/18 04:57:19;;;;;;;;;;;;;;;1.62;85.34;98383.91;1749432;80;20720;-84
2022/04/18 04:59:45;;;;;;;;;;;;;;;1.77;85.74;98383.80;1728562;81;22087;-84
2022/04/18 05:02:12;;;;;;;;;;;;;;;2.00;86.26;98379.95;1729418;81;26034;-82
2022/04/18 05:04:38;;;;;;;;;;;;;;;2.14;86.60;98379.88;1741545;81;24421;-83
2022/04/18 05:07:04;;;;;;;;;;;;;;;2.27;87.00;98374.66;1734863;81;20253;-83
2022/04/18 05:09:30;;;;;;;;;;;;;;;2.38;87.29;98375.10;1739485;80;24730;-86
2022/04/18 05:11:56;;;;;;;;;;;;;;;2.44;87.54;98373.58;1726261;81;22047;-84
2022/04/18 05:14:27;;;;;;;;;;;;;;;2.53;87.75;98375.35;1740775;80;26778;-82
2022/04/18 05:16:53;;;;;;;;;;;;;;;2.60;87.95;98374.67;1731817;81;25124;-83
2022/04/18 05:19:19;;;;;;;;;;;;;;;2.69;88.16;98373.02;1733617;80;20842;-84
2022/04/18 05:21:45;;;;;;;;;;;;;;;2.80;88.35;98379.05;1727343;81;20239;-83
2022/04/18 05:24:11;;;;;;;;;;;;;;;2.79;88.38;98376.91;1716558;81;20773;-83
2022/04/18 05:26:36;;;;;;;;;;;;;;;2.65;88.19;98379.20;1753738;80;20960;-83
2022/04/18 05:29:03;;;;;;;;;;;;;;;2.46;87.92;98384.23;1717317;81;20858;-83
2022/04/18 05:31:30;;;;;;;;;;;;;;;2.39;87.81;98387.97;1749708;80;20491;-83
2022/04/18 05:33:56;;;;;;;;;;;;;;;2.38;87.83;98390.59;1730427;81;25410;-83
2022/04/18 05:36:22;;;;;;;;;;;;;;;2.49;88.04;98388.45;1720496;81;22002;-83
2022/04/18 05:38:48;;;;;;;;;;;;;;;2.60;88.29;98383.72;1724917;81;20974;-83
2022/04/18 05:41:14;;;;;;;;;;;;;;;2.67;88.46;98379.16;1721068;82;20392;-86
2022/04/18 05:43:40;;;;;;;;;;;;;;;2.65;88.47;98375.33;1711879;81;20240;-86
2022/04/18 05:46:07;;;;;;;;;;;;;;;2.59;88.41;98374.28;1710080;82;24772;-83
2022/04/18 05:48:33;;;;;;;;;;;;;;;2.53;88.33;98374.52;1712628;82;21413;-82
2022/04/18 05:50:59;;;;;;;;;;;;;;;2.53;88.34;98373.22;1729627;81;20974;-83
2022/04/18 05:53:26;;;;;;;;;;;;;;;2.57;88.49;98373.93;1722221;81;20386;-83
2022/04/18 05:55:52;;;;;;;;;;;;;;;2.64;88.67;98373.64;1750886;80;20197;-83
2022/04/18 05:58:18;;;;;;;;;;;;;;;2.71;88.93;98367.80;1733768;80;24798;-83
2022/04/18 06:00:44;;;;;;;;;;;;;;;2.79;89.18;98369.16;1735888;80;20255;-82
2022/04/18 06:03:11;;;;;;;;;;;;;;;2.86;89.47;98366.73;1732020;80;25966;-82
2022/04/18 06:05:37;;;;;;;;;;;;;;;2.97;89.78;98368.04;1749050;80;24708;-83
2022/04/18 06:08:06;;;;;;;;;;;;;;;3.08;90.06;98370.58;1743480;80;20311;-83
2022/04/18 06:10:32;;;;;;;;;;;;;;;3.22;90.33;98373.88;1742058;80;25018;-81
2022/04/18 06:12:58;;;;;;;;;;;;;;;3.33;90.58;98373.83;1744760;80;22066;-81
2022/04/18 06:15:24;;;;;;;;;;;;;;;3.44;90.75;98368.20;1736337;80;21012;-85
2022/04/18 06:17:50;;;;;;;;;;;;;;;3.53;90.85;98369.13;1733386;80;25556;-83
2022/04/18 06:20:16;;;;;;;;;;;;;;;3.63;90.91;98369.12;1740273;80;20279;-82
2022/04/18 06:22:42;;;;;;;;;;;;;;;3.73;90.94;98370.39;1735222;80;24815;-83
2022/04/18 06:25:08;;;;;;;;;;;;;;;3.85;91.06;98372.06;1737834;80;21970;-82
2022/04/18 06:27:34;;;;;;;;;;;;;;;3.96;91.17;98369.39;1731049;80;26069;-82
2022/04/18 06:30:01;;;;;;;;;;;;;;;4.09;91.25;98382.16;1733870;80;24468;-81
2022/04/18 06:32:28;;;;;;;;;;;;;;;4.26;91.46;98372.34;1731140;80;20248;-82
2022/04/18 06:34:54;;;;;;;;;;;;;;;4.37;91.50;98379.17;1743966;80;24925;-84
2022/04/18 06:37:20;;;;;;;;;;;;;;;4.52;91.51;98367.28;1741042;80;22748;-83
2022/04/18 06:39:46;;;;;;;;;;;;;;;4.63;91.53;98367.62;1743782;80;20987;-82
2022/04/18 06:42:14;;;;;;;;;;;;;;;4.72;91.50;98372.81;1740036;80;20249;-83
2022/04/18 06:44:40;;;;;;;;;;;;;;;4.87;91.57;98377.27;1733291;80;20248;-83
2022/04/18 06:47:07;;;;;;;;;;;;;;;4.97;91.59;98374.16;1723253;82;20236;-82
2022/04/18 06:49:33;;;;;;;;;;;;;;;5.03;91.53;98382.09;1729261;82;22058;-82
2022/04/18 06:51:59;;;;;;;;;;;;;;;4.97;91.25;98382.38;1725467;82;25998;-82
2022/04/18 06:54:25;;;;;;;;;;;;;;;4.87;90.83;98379.40;1724914;82;21030;-83
2022/04/18 06:57:00;;;;;;;;;;;;;;;4.84;90.51;98380.02;1727209;82;20988;-83
2022/04/18 06:59:27;;;;;;;;;;;;;;;4.90;90.38;98378.43;1726842;81;24755;-82
2022/04/18 07:01:53;;;;;;;;;;;;;;;4.99;90.40;98376.68;1745279;82;21958;-82
2022/04/18 07:04:19;;;;;;;;;;;;;;;5.00;90.27;98377.91;1747316;81;25990;-82
2022/04/18 07:06:46;;;;;;;;;;;;;;;5.00;90.04;98374.02;1712145;82;24411;-82
2022/04/18 07:09:12;;;;;;;;;;;;;;;5.02;89.86;98379.11;1741598;81;20247;-82
2022/04/18 07:11:40;;;;;;;;;;;;;;;5.04;89.74;98373.41;1713857;83;24759;-82
2022/04/18 07:14:08;;;;;;;;;;;;;;;5.07;89.65;98373.73;1743076;82;21978;-81
2022/04/18 07:16:37;;;;;;;;;;;;;;;5.23;89.84;98359.94;1745308;81;25994;-83
2022/04/18 07:19:03;;;;;;;;;;;;;;;5.45;90.15;98355.32;1719635;83;24736;-82
2022/04/18 07:21:30;;;;;;;;;;;;;;;5.57;90.27;98361.65;1716165;83;20283;-82
2022/04/18 07:23:56;;;;;;;;;;;;;;;5.53;90.00;98363.19;1712213;82;24456;-82
2022/04/18 07:26:22;;;;;;;;;;;;;;;5.44;89.54;98369.69;1729717;82;20766;-85
2022/04/18 07:28:48;;;;;;;;;;;;;;;5.43;89.32;98370.61;1725116;82;20971;-85
2022/04/18 07:31:14;;;;;;;;;;;;;;;5.40;89.06;98368.98;1729806;82;25424;-85
2022/04/18 07:33:43;;;;;;;;;;;;;;;5.44;88.94;98357.56;1725891;82;20437;-86
2022/04/18 07:36:09;;;;;;;;;;;;;;;5.54;88.93;98360.52;1724256;82;24769;-83
2022/04/18 07:38:51;;;;;;;;;;;;;;;5.72;89.12;98357.45;1730619;82;22043;-82
2022/04/18 07:41:24;;;;;;;;;;;;;;;5.86;89.30;98357.11;1727565;82;26005;-82
2022/04/18 07:43:51;;;;;;;;;;;;;;;6.01;89.35;98356.79;1723590;82;24466;-82
2022/04/18 07:46:18;;;;;;;;;;;;;;;6.17;89.41;98351.62;1712447;82;20173;-82
2022/04/18 07:48:45;;;;;;;;;;;;;;;6.33;89.56;98354.26;1709600;83;24878;-82
2022/04/18 07:54:03;;;;;;;;;;;;;;;6.42;89.29;98339.45;1711123;83;26077;-82
2022/04/18 07:56:30;;;;;;;;;;;;;;;6.49;89.21;98345.52;1738532;82;24565;-82
2022/04/18 07:58:57;;;;;;;;;;;;;;;6.49;89.07;98340.80;1705712;83;20726;-85
2022/04/18 08:01:23;;;;;;;;;;;;;;;6.57;89.08;98341.20;1736917;82;24785;-85
2022/04/18 08:03:49;;;;;;;;;;;;;;;6.72;89.14;98342.95;1735791;82;21996;-84
2022/04/18 08:06:19;;;;;;;;;;;;;;;6.87;89.19;98340.81;1711412;82;26015;-86
2022/04/18 08:08:45;;;;;;;;;;;;;;;6.96;89.04;98336.38;1735486;82;25367;-86
2022/04/18 08:11:15;;;;;;;;;;;;;;;7.08;88.84;98335.69;1740034;82;20255;-86
2022/04/18 08:13:42;;;;;;;;;;;;;;;7.15;88.44;98334.84;1738427;82;25564;-83
2022/04/18 08:16:08;;;;;;;;;;;;;;;7.17;88.01;98329.56;1740611;82;21808;-85
2022/04/18 08:18:39;;;;;;;;;;;;;;;7.24;87.77;98332.20;1702068;82;26029;-82
2022/04/18 08:21:06;;;;;;;;;;;;;;;7.29;87.44;98329.70;1711035;83;24478;-82
2022/04/18 08:23:32;;;;;;;;;;;;;;;7.36;87.13;98324.98;1704549;83;20477;-82
2022/04/18 08:25:58;;;;;;;;;;;;;;;7.38;86.68;98323.11;1713255;83;24959;-82
2022/04/18 08:28:26;;;;;;;;;;;;;;;7.46;86.24;98327.41;1710777;83;20796;-82
2022/04/18 08:30:52;;;;;;;;;;;;;;;7.53;85.80;98324.34;1708037;83;26033;-82
2022/04/18 08:33:18;;;;;;;;;;;;;;;7.58;85.47;98328.00;1708945;83;24599;-85
2022/04/18 08:35:44;;;;;;;;;;;;;;;7.56;85.02;98325.48;1710978;83;20896;-85
2022/04/18 08:38:13;;;;;;;;;;;;;;;7.56;84.42;98328.55;1713183;83;24839;-86
2022/04/18 08:40:41;;;;;;;;;;;;;;;7.53;83.73;98315.69;1710585;83;22043;-85
2022/04/18 08:43:08;;;;;;;;;;;;;;;7.43;82.32;98322.38;1703374;83;26123;-87
2022/04/18 08:45:36;;;;;;;;;;;;;;;7.41;81.08;98315.98;1717590;81;24460;-87
2022/04/18 08:53:38;;;;;;;;;;;;;;;7.67;79.41;98313.12;1729681;81;22121;-83
2022/04/18 08:56:04;;;;;;;;;;;;;;;7.69;78.62;98306.52;1730100;81;26087;-83
2022/04/18 08:58:30;;;;;;;;;;;;;;;7.71;78.08;98296.37;1732261;81;24546;-83
2022/04/18 09:00:59;;;;;;;;;;;;;;;7.75;77.62;98301.75;1739940;81;20221;-84
2022/04/18 09:03:25;;;;;;;;;;;;;;;7.79;77.05;98292.84;1734086;81;24864;-83
2022/04/18 09:06:11;;;;;;;;;;;;;;;7.89;76.78;98290.51;1737928;81;22051;-83
2022/04/18 09:08:51;;;;;;;;;;;;;;;7.87;76.11;98288.45;1731979;81;26012;-83
2022/04/18 09:11:26;;;;;;;;;;;;;;;7.93;75.70;98288.08;1736692;81;24448;-83
2022/04/18 09:14:09;;;;;;;;;;;;;;;7.99;75.31;98289.01;1732723;81;20223;-84
2022/04/18 09:16:36;;;;;;;;;;;;;;;7.95;74.60;98290.98;1743901;80;25533;-83
2022/04/18 09:19:12;;;;;;;;;;;;;;;7.94;73.54;98287.99;1729240;81;22308;-82
2022/04/18 09:21:43;;;;;;;;;;;;;;;8.01;72.85;98275.89;1728843;81;26172;-83
2022/04/18 09:24:31;;;;;;;;;;;;;;;7.99;71.89;98278.59;1724266;81;24561;-87
2022/04/18 09:26:53;;;;;;;;;;;;;;;8.00;71.19;98285.48;1710734;82;20362;-82
2022/04/18 09:29:19;;;;;;;;;;;;;;;8.04;70.53;98271.31;1745013;81;24740;-83
2022/04/18 09:31:45;;;;;;;;;;;;;;;8.17;70.36;98270.94;1738428;81;20260;-84
2022/04/18 09:34:13;;;;;;;;;;;;;;;8.26;69.88;98275.56;1717181;81;26022;-83
2022/04/18 09:36:39;;;;;;;;;;;;;;;8.31;69.36;98270.92;1711802;81;24830;-82
2022/04/18 09:39:05;;;;;;;;;;;;;;;8.48;69.09;98264.64;1753621;80;20263;-82
2022/04/18 09:41:32;;;;;;;;;;;;;;;8.63;68.82;98256.28;1747762;80;24943;-82
2022/04/18 09:43:59;;;;;;;;;;;;;;;8.66;68.20;98259.55;1744293;80;22085;-83
2022/04/18 09:46:28;;;;;;;;;;;;;;;8.62;67.03;98249.42;1736280;80;25965;-83
2022/04/18 09:48:59;;;;;;;;;;;;;;;8.66;66.47;98245.20;1744515;80;24527;-82
2022/04/18 09:51:29;;;;;;;;;;;;;;;8.77;66.19;98244.03;1744410;80;20236;-82
2022/04/18 09:53:57;;;;;;;;;;;;;;;8.80;65.41;98245.12;1737027;80;24838;-83
2022/04/18 09:56:23;;;;;;;;;;;;;;;8.83;64.43;98238.88;1742189;80;22883;-83
2022/04/18 09:58:49;;;;;;;;;;;;;;;8.86;63.40;98242.58;1741549;80;26010;-83
2022/04/18 10:01:19;;;;;;;;;;;;;;;9.03;63.00;98246.69;1750250;80;20908;-83
2022/04/18 10:03:46;;;;;;;;;;;;;;;9.12;62.49;98246.06;1736152;80;20188;-83
2022/04/18 10:06:12;;;;;;;;;;;;;;;9.07;61.69;98241.63;1734403;80;25591;-82
2022/04/18 10:08:39;;;;;;;;;;;;;;;9.08;61.19;98244.61;1746325;80;22229;-86
2022/04/18 10:11:08;;;;;;;;;;;;;;;9.04;60.62;98240.53;1729339;80;21024;-85
2022/04/18 10:13:35;;;;;;;;;;;;;;;9.00;60.04;98248.20;1741636;80;25388;-85
2022/04/18 10:16:01;;;;;;;;;;;;;;;9.04;59.86;98247.06;1734400;80;20577;-85
2022/04/18 10:18:28;;;;;;;;;;;;;;;9.07;59.64;98239.84;1734495;80;24903;-82
2022/04/18 10:21:08;;;;;;;;;;;;;;;9.03;59.02;98243.61;1753337;80;22138;-83
2022/04/18 10:23:55;;;;;;;;;;;;;;;8.88;58.17;98255.07;1745844;80;26090;-85
2022/04/18 10:26:43;;;;;;;;;;;;;;;8.74;57.45;98246.83;1727786;80;24609;-86
2022/04/18 10:29:18;;;;;;;;;;;;;;;8.68;56.91;98248.53;1736240;80;20245;-83
2022/04/18 10:31:45;;;;;;;;;;;;;;;8.52;56.26;98241.80;1741405;80;26651;-83
2022/04/18 10:34:13;;;;;;;;;;;;;;;8.52;55.98;98243.94;1745603;80;22043;-83
2022/04/18 10:36:46;;;;;;;;;;;;;;;8.61;55.93;98242.52;1742485;80;26594;-85
2022/04/18 10:39:12;;;;;;;;;;;;;;;8.74;56.06;98241.61;1752125;80;24508;-86
2022/04/18 10:41:40;;;;;;;;;;;;;;;8.86;56.14;98241.74;1716290;81;20308;-85
2022/04/18 10:44:10;;;;;;;;;;;;;;;8.91;56.03;98239.20;1727528;81;25631;-86
2022/04/18 10:46:37;;;;;;;;;;;;;;;8.93;55.83;98234.72;1708628;81;22061;-85
2022/04/18 10:49:04;;;;;;;;;;;;;;;8.99;55.79;98225.66;1704735;83;26095;-86
2022/04/18 10:51:37;;;;;;;;;;;;;;;9.02;55.70;98228.88;1707798;83;24458;-86
2022/04/18 10:54:07;;;;;;;;;;;;;;;9.02;55.57;98229.34;1701941;83;20237;-86
2022/04/18 10:56:47;;;;;;;;;;;;;;;9.01;55.40;98215.45;1704216;83;25398;-86
2022/04/18 10:59:13;;;;;;;;;;;;;;;9.04;55.22;98218.34;1707852;83;22601;-85
2022/04/18 11:01:40;;;;;;;;;;;;;;;9.06;55.03;98216.45;1708253;83;26163;-86
2022/04/18 11:04:10;;;;;;;;;;;;;;;9.12;54.96;98205.59;1708764;83;24479;-82
2022/04/18 11:06:38;;;;;;;;;;;;;;;9.31;55.07;98202.13;1710423;83;20244;-83
2022/04/18 11:09:08;;;;;;;;;;;;;;;9.45;55.04;98199.85;1711419;83;25573;-83
2022/04/18 11:11:43;;;;;;;;;;;;;;;9.59;55.07;98190.14;1710016;83;22116;-82
2022/04/18 11:14:20;;;;;;;;;;;;;;;9.84;55.28;98191.02;1704917;83;26126;-82
2022/04/18 11:16:47;;;;;;;;;;;;;;;9.95;55.15;98197.63;1706024;83;24426;-83
2022/04/18 11:19:17;;;;;;;;;;;;;;;9.97;54.85;98184.83;1710976;83;20610;-83
2022/04/18 11:21:58;;;;;;;;;;;;;;;9.94;54.48;98188.11;1717851;83;24733;-82
2022/04/18 11:24:36;;;;;;;;;;;;;;;9.81;54.01;98188.16;1709988;83;22659;-83
2022/04/18 11:27:03;;;;;;;;;;;;;;;9.74;53.69;98182.99;1705853;83;25969;-83
2022/04/18 11:29:32;;;;;;;;;;;;;;;9.55;53.14;98187.35;1703927;83;24484;-83
2022/04/18 11:31:58;;;;;;;;;;;;;;;9.49;52.95;98178.63;1705372;83;20713;-82
2022/04/18 11:34:25;;;;;;;;;;;;;;;9.38;52.55;98179.84;1703932;83;24799;-83
2022/04/18 11:36:53;;;;;;;;;;;;;;;9.30;52.23;98180.86;1710491;83;22042;-83
2022/04/18 11:39:19;;;;;;;;;;;;;;;9.33;52.13;98181.94;1708547;83;26062;-83
2022/04/18 11:41:50;;;;;;;;;;;;;;;9.33;51.99;98177.22;1681676;83;20158;-83
2022/04/18 11:44:19;;;;;;;;;;;;;;;9.28;51.70;98175.36;1712633;83;20272;-83
2022/04/18 11:46:47;;;;;;;;;;;;;;;9.26;51.62;98175.49;1729085;80;24804;-82
2022/04/18 11:49:13;;;;;;;;;;;;;;;9.31;51.57;98177.78;1755902;80;22020;-82
2022/04/18 11:51:40;;;;;;;;;;;;;;;9.46;51.73;98171.02;1756515;80;21011;-82
2022/04/18 11:54:06;;;;;;;;;;;;;;;9.60;51.82;98174.00;1754774;80;24562;-83
2022/04/18 11:56:32;;;;;;;;;;;;;;;9.68;51.89;98171.66;1743958;80;20228;-82
2022/04/18 11:59:04;;;;;;;;;;;;;;;9.77;51.93;98167.55;1741856;80;20479;-83
2022/04/18 12:07:03;;;;;;;;;;;;;;;10.08;52.18;98152.20;1777039;80;24497;-82
2022/04/18 12:09:35;;;;;;;;;;;;;;;10.23;52.17;98148.14;1770124;80;20353;-82
2022/04/18 12:11:58;;;;;;;;;;;;;;;10.35;52.17;98144.16;1772724;80;24767;-82
2022/04/18 12:14:26;;;;;;;;;;;;;;;10.51;52.17;98143.02;1773504;80;22044;-82
2022/04/18 12:16:52;;;;;;;;;;;;;;;10.65;52.17;98132.35;1777748;80;26016;-82
2022/04/18 12:19:18;;;;;;;;;;;;;;;10.89;52.31;98128.73;1763773;80;24449;-83
2022/04/18 12:21:46;;;;;;;;;;;;;;;11.08;52.33;98127.31;1771936;80;20586;-83
2022/04/18 12:24:12;;;;;;;;;;;;;;;11.26;52.35;98122.81;1776781;80;24741;-83
2022/04/18 12:26:39;;;;;;;;;;;;;;;11.48;52.30;98117.20;1778303;80;22046;-83
2022/04/18 12:29:08;;;;;;;;;;;;;;;11.59;52.20;98116.72;1776068;80;26060;-83
2022/04/18 12:31:36;;;;;;;;;;;;;;;11.63;52.12;98119.45;1775963;80;23940;-83
2022/04/18 12:34:02;;;;;;;;;;;;;;;11.47;51.73;98117.67;1769640;80;20238;-83
2022/04/18 12:36:33;;;;;;;;;;;;;;;11.19;51.08;98107.20;1774862;80;24821;-83
2022/04/18 12:38:59;;;;;;;;;;;;;;;11.03;50.68;98111.95;1771868;80;22039;-83
2022/04/18 12:41:33;;;;;;;;;;;;;;;10.76;50.07;98108.83;1771098;80;26029;-83
2022/04/18 12:43:59;;;;;;;;;;;;;;;10.60;49.68;98113.08;1767015;80;24603;-82
2022/04/18 12:46:27;;;;;;;;;;;;;;;10.44;49.31;98113.39;1769632;80;20215;-82
2022/04/18 12:48:53;;;;;;;;;;;;;;;10.37;49.14;98117.40;1774626;80;24784;-85
2022/04/18 12:51:21;;;;;;;;;;;;;;;10.29;48.88;98118.92;1770829;80;22036;-86
2022/04/18 12:53:51;;;;;;;;;;;;;;;10.28;48.78;98112.02;1777300;80;25994;-86
2022/04/18 12:56:21;;;;;;;;;;;;;;;10.35;48.72;98107.55;1774681;80;24672;-87
2022/04/18 12:58:49;;;;;;;;;;;;;;;10.43;48.73;98102.56;1744099;80;20527;-87
2022/04/18 13:01:25;;;;;;;;;;;;;;;10.56;48.72;98091.19;1768988;80;25519;-87
2022/04/18 13:03:52;;;;;;;;;;;;;;;10.62;48.58;98092.03;1735013;81;22046;-87
2022/04/18 13:06:22;;;;;;;;;;;;;;;10.66;48.51;98094.30;1778721;80;25987;-87
2022/04/18 13:08:48;;;;;;;;;;;;;;;10.69;48.45;98091.44;1761496;80;24475;-87
2022/04/18 13:11:16;;;;;;;;;;;;;;;10.72;48.40;98084.68;1777963;80;20229;-87
2022/04/18 13:13:42;;;;;;;;;;;;;;;10.62;48.19;98082.88;1775877;80;25658;-86
2022/04/18 13:16:22;;;;;;;;;;;;;;;10.57;48.02;98079.30;1778892;80;22568;-87
2022/04/18 13:18:50;;;;;;;;;;;;;;;10.52;47.81;98083.22;1775863;80;26098;-87
2022/04/18 13:21:16;;;;;;;;;;;;;;;10.29;47.28;98083.14;1775380;80;24885;-87
2022/04/18 13:23:42;;;;;;;;;;;;;;;10.17;46.97;98085.35;1780657;80;20287;-87